Station: Tindal  

  Atmospheric Gas Attenuation - ITU Rec 676-11   ----------------- dB/100km -----------------
Date Time Temp RH % AH g/m3 Dew Point Wind Direction Speed kph Gust kph Barometer mB Rainfall Since 9am 24GHz 47GHz 76GHz 122GHz 134GHz 241GHz
07/09 03:20 25.6 71 16.9 19.9 9 13 1014 0 36.4 35.9 67.0 177.2 191.8 666.0
07/09 03:10 25.5 70 16.57 19.6 9 13 1014.1 0 35.8 35.4 65.7 173.6 187.3 650.3
07/09 03:00 25.8 69 16.61 19.7 9 13 1014.1 0 35.8 35.3 65.6 173.4 187.1 649.7
07/09 02:50 25.6 68 16.19 19.3 9 11 1014.1 0 34.9 34.7 63.9 168.9 181.6 630.5
07/09 02:40 25.7 65 15.56 18.6 9 11 1014.2 0 33.6 33.6 61.1 161.5 172.5 598.8
07/09 02:30 25.8 63 15.17 18.2 11 15 1014.2 0 32.8 32.9 59.4 156.9 166.9 579.2
07/09 02:20 25.7 61 14.6 17.6 11 15 1014.2 0 31.6 31.9 57.1 150.7 159.3 552.7
07/09 02:10 25.6 60 14.28 17.3 11 11 1014.3 0 30.9 31.4 55.8 147.4 155.2 538.3
07/09 02:00 25.2 62 14.43 17.4 11 11 1014.3 0 31.3 31.8 56.8 149.8 158.0 548.2
07/09 01:50 25.2 60 13.97 17.1 9 9 1014.3 0 30.3 31.1 54.9 144.8 151.8 526.5
07/09 01:40 25.4 61 14.36 17.3 11 13 1014.3 0 31.1 31.6 56.3 148.7 156.6 543.5
07/09 01:30 25.5 60 14.2 17.2 9 13 1014.4 0 30.8 31.3 55.6 146.7 154.3 535.3
07/09 01:20 25.9 59 14.28 17.3 7 9 1014.3 0 30.9 31.3 55.6 146.8 154.6 536.2
07/09 01:10 25.6 60 14.28 17.3 13 20 1014.5 0 30.9 31.4 55.9 147.4 155.2 538.4
07/09 01:00 24.2 61 13.42 16.2 6 7 1014 0 29.2 30.5 53.3 140.5 146.3 507.2
07/09 00:50 24.4 60 13.35 16.1 7 7 1013.9 0 29.0 30.3 52.9 139.4 145.0 502.6
07/09 00:40 24.7 57 12.9 15.6 6 7 1013.9 0 28.1 29.5 50.8 134.0 138.5 480.0
07/09 00:30 24.5 58 12.98 15.7 9 11 1014 0 28.3 29.7 51.3 135.3 139.9 484.9
07/09 00:20 24.4 60 13.35 16.1 9 11 1013.9 0 29.0 30.3 52.9 139.4 145.0 502.6
07/09 00:10 24.6 61 13.73 16.6 2 9 1014 0 29.8 30.9 54.3 143.2 149.7 519.1
07/09 00:00 24.8 60 13.66 16.5 4 6 1013.9 0 29.7 30.7 53.8 142.1 148.3 514.5
06/09 23:50 25 59 13.58 16.4 6 9 1013.9 0 29.5 30.5 53.4 140.8 146.9 509.4
06/09 23:40 25.3 57 13.34 16.2 6 7 1014 0 29.0 30.0 52.2 137.7 143.2 496.5
06/09 23:30 26 53 12.9 15.7 4 6 1014 0 28.0 29.0 50.0 131.9 136.2 472.1
06/09 23:20 26.3 53 13.12 16 0 0 1013.9 0 28.4 29.3 50.7 133.7 138.5 480.2
06/09 23:10 26.1 54 13.22 16.1 0 6 1014 0 28.7 29.5 51.2 135.1 140.1 486.0
06/09 23:00 26 55 13.39 16.3 6 7 1013.9 0 29.0 29.8 51.9 137.0 142.5 494.3
06/09 22:50 25.9 55 13.32 16.2 6 9 1013.9 0 28.9 29.7 51.7 136.5 141.8 491.7
06/09 22:40 26.1 55 13.47 16.4 7 13 1013.9 0 29.2 29.9 52.2 137.7 143.4 497.3
06/09 22:30 26.9 53 13.57 16.5 0 0 1013.9 0 29.3 29.8 52.1 137.4 143.2 496.8
06/09 22:20 27.5 51 13.49 16.5 0 0 1013.8 0 29.1 29.5 51.4 135.5 141.1 489.4
06/09 22:10 27.3 51 13.35 16.3 0 0 1013.9 0 28.8 29.3 50.9 134.4 139.7 484.4
06/09 22:00 27.2 51 13.27 16.2 0 0 1014 0 28.7 29.2 50.7 133.7 138.8 481.5
06/09 21:50 27.3 51 13.35 16.3 0 2 1013.9 0 28.8 29.3 50.9 134.4 139.7 484.4
06/09 21:40 27.3 50 13.08 16 6 7 1013.9 0 28.3 28.9 49.9 131.6 136.2 472.4
06/09 21:30 27.4 50 13.16 16.1 7 9 1013.8 0 28.4 29.0 50.1 132.2 137.0 475.3
06/09 21:20 27.4 51 13.42 16.4 6 7 1013.7 0 29.0 29.4 51.1 134.9 140.4 486.9
06/09 21:10 26.8 52 13.24 16.1 6 7 1013.7 0 28.6 29.3 50.8 134.1 139.1 482.5
06/09 21:00 26.8 53 13.49 16.4 7 9 1013.6 0 29.2 29.7 51.8 136.7 142.3 493.7
06/09 20:50 27.2 53 13.79 16.8 7 13 1013.4 0 29.8 30.0 52.7 139.1 145.5 504.7
06/09 20:40 28 49 13.33 16.3 4 7 1013.3 0 28.8 29.0 50.4 132.9 138.1 479.1
06/09 20:30 27.9 50 13.52 16.5 0 0 1013.2 0 29.2 29.4 51.2 135.0 140.7 488.1
06/09 20:20 28.5 47 13.14 16.1 0 0 1013 0 28.3 28.6 49.3 130.1 134.8 467.6
06/09 20:10 28.8 46 13.07 16 0 0 1012.9 0 28.2 28.4 48.9 128.9 133.4 462.8
06/09 20:00 28.4 48 13.34 16.3 0 0 1012.8 0 28.8 28.9 50.2 132.3 137.5 476.9
06/09 19:50 29 45 12.93 15.9 0 0 1012.7 0 27.9 28.1 48.2 127.2 131.3 455.5
06/09 19:40 29.1 44 12.71 15.6 6 6 1012.6 0 27.4 27.7 47.3 124.8 128.4 445.4
06/09 19:30 29.5 44 12.99 16 7 9 1012.4 0 28.0 28.0 48.1 126.9 131.2 455.1
06/09 19:20 30 42 12.74 15.7 6 7 1012.3 0 27.4 27.5 46.9 123.7 127.3 441.6
06/09 19:10 30.8 39 12.35 15.6 6 7 1012.2 0 26.5 26.7 45.0 118.7 121.4 421.0
06/09 19:00 31.4 38 12.43 15.4 6 6 1012.1 0 26.7 26.6 45.0 118.5 121.4 421.1
06/09 18:50 32.4 35 12.07 15 6 7 1011.9 0 25.9 25.8 43.1 113.7 115.7 401.3
06/09 18:40 32.9 32 11.34 14 4 7 1011.7 0 24.3 24.6 40.4 106.3 106.7 370.0
06/09 18:30 33.7 30 11.09 13.7 4 6 1011.6 0 23.8 24.1 39.1 103.0 102.9 356.7
06/09 18:20 34 29 10.89 13.5 6 7 1011.4 0 23.3 23.7 38.3 100.9 100.4 347.7
06/09 18:10 34.2 29 11 13.6 7 11 1011.2 0 23.6 23.8 38.6 101.6 101.3 351.0
06/09 18:00 34.7 28 10.9 13.5 7 9 1011.3 0 23.3 23.5 38.0 100.1 99.6 345.2
06/09 17:50 34.8 27 10.57 13 7 11 1011.1 0 22.7 23.1 36.9 97.1 95.9 332.3
06/09 17:40 35 28 11.07 13.8 11 17 1011 0 23.7 23.7 38.4 101.2 101.0 350.2
06/09 17:30 35.1 27 10.74 13.3 9 13 1010.9 0 23.0 23.2 37.3 98.2 97.4 337.4
06/09 17:20 34.9 27 10.62 13.1 9 13 1010.8 0 22.8 23.1 37.0 97.4 96.3 333.7
06/09 17:10 35.1 28 11.13 13.9 9 15 1010.8 0 23.8 23.7 38.6 101.6 101.5 352.0
06/09 17:00 34.6 29 11.23 14 9 13 1010.8 0 24.0 24.0 39.1 103.1 103.3 357.9
06/09 16:50 35 29 11.47 14.3 9 15 1010.7 0 24.5 24.2 39.7 104.7 105.3 365.3
06/09 16:40 34.5 30 11.56 14.4 9 13 1010.7 0 24.7 24.5 40.3 106.1 107.0 371.0
06/09 16:30 35.1 29 11.53 14.4 9 15 1010.7 0 24.6 24.3 39.9 105.1 105.9 367.2
06/09 16:20 35 29 11.47 14.3 9 15 1010.7 0 24.5 24.2 39.7 104.7 105.3 365.3
06/09 16:10 35 29 11.47 14.3 7 9 1010.7 0 24.5 24.2 39.7 104.7 105.3 365.3
06/09 16:00 34.7 29 11.29 14 6 11 1010.7 0 24.1 24.0 39.3 103.5 103.8 359.8
06/09 15:50 34.4 31 11.88 14.8 9 11 1010.8 0 25.4 24.9 41.4 109.1 110.7 383.9
06/09 15:40 34.4 30 11.5 14.3 11 15 1010.9 0 24.6 24.4 40.1 105.7 106.5 369.2
06/09 15:30 34.6 31 12.01 15 7 11 1011.1 0 25.6 25.1 41.8 110.1 111.9 388.1
06/09 15:20 34.8 30 11.74 14.7 7 17 1011.1 0 25.0 24.6 40.8 107.4 108.6 376.7
06/09 15:10 35.3 29 11.65 14.6 11 17 1011.1 0 24.8 24.4 40.2 105.9 107.0 371.0
06/09 15:00 35.6 29 11.83 14.8 11 19 1011.3 0 25.2 24.6 40.7 107.2 108.5 376.5
06/09 14:50 35.5 31 12.58 15.8 13 19 1011.3 0 26.7 25.6 43.2 114.0 117.0 406.1
06/09 14:40 35.2 30 11.99 15 6 15 1011.3 0 25.5 24.9 41.4 109.1 110.8 384.5
06/09 14:30 35.3 31 12.45 15.6 9 19 1011.6 0 26.5 25.5 42.9 113.2 115.8 402.0
06/09 14:20 35.2 31 12.39 15.5 9 20 1011.7 0 26.4 25.4 42.8 112.8 115.3 400.2
06/09 14:10 35.1 32 12.72 15.9 9 17 1011.8 0 27.0 25.9 44.0 115.9 119.2 413.7
06/09 14:00 34 33 12.39 15.5 9 17 1012.1 0 26.4 25.8 43.4 114.5 117.1 406.3
06/09 13:50 34.2 34 12.9 16.1 9 15 1012.3 0 27.5 26.5 45.1 118.9 122.6 425.7
06/09 13:40 33.6 34 12.5 15.6 11 19 1012.5 0 26.7 26.1 44.0 116.1 119.0 412.8
06/09 13:30 33.5 34 12.43 15.5 7 15 1012.7 0 26.5 26.0 43.9 115.6 118.3 410.6
06/09 13:20 34.1 33 12.45 15.5 7 13 1012.9 0 26.5 25.9 43.6 115.0 117.7 408.4
06/09 13:10 34.4 33 12.65 15.8 9 20 1013.1 0 26.9 26.1 44.2 116.4 119.5 414.9
06/09 13:00 34.1 34 12.83 16 11 19 1013.3 0 27.3 26.4 45.0 118.5 122.1 423.7
06/09 12:50 34 36 13.51 16.8 9 19 1013.6 0 28.7 27.4 47.4 125.1 130.2 452.0
06/09 12:40 33.6 35 12.86 16 11 24 1013.8 0 27.4 26.6 45.4 119.6 123.2 427.7
06/09 12:30 33.9 36 13.44 16.7 13 24 1014 0 28.6 27.4 47.3 124.7 129.5 449.8
06/09 12:20 33.2 38 13.68 17 9 19 1014.2 0 29.1 28.0 48.5 128.1 133.5 463.8
06/09 12:10 33 38 13.53 16.8 13 19 1014.5 0 28.8 27.8 48.1 127.0 132.1 458.8
06/09 12:00 32.8 39 13.74 17 9 20 1014.7 0 29.3 28.2 49.0 129.4 135.0 468.8
06/09 11:50 31.9 40 13.44 16.6 11 19 1014.9 0 28.7 28.0 48.5 127.9 132.9 461.4
06/09 11:40 32 41 13.85 17.1 13 24 1015.2 0 29.5 28.6 50.0 131.8 137.8 478.3
06/09 11:30 32.6 41 14.29 17.6 13 19 1015.4 0 30.4 29.1 51.2 135.2 142.1 493.6
06/09 11:20 31.3 44 14.31 17.6 17 26 1015.6 0 30.5 29.6 52.1 137.6 144.7 502.6
06/09 11:10 31.2 45 14.56 17.9 11 20 1015.8 0 31.1 30.0 53.2 140.4 148.1 514.2
06/09 11:00 31.3 45 14.64 17.9 15 22 1016 0 31.2 30.1 53.4 141.0 148.9 517.2
06/09 10:50 30.9 49 15.6 18.9 11 20 1016.1 0 33.3 31.7 57.5 151.8 162.0 562.8

Last Refresh: 07-Sep-2026 03:30:41

Bureau of Meteorology